sensor_id;sensor_type;location;lat;lon;timestamp;P1;durP1;ratioP1;P2;durP2;ratioP2
50092;SDS011;35974;47.752;10.290;2024-03-02T00:01:34;7.85;;;5.90;;
50092;SDS011;35974;47.752;10.290;2024-03-02T00:04:03;8.57;;;6.10;;
50092;SDS011;35974;47.752;10.290;2024-03-02T00:06:32;9.50;;;6.32;;
50092;SDS011;35974;47.752;10.290;2024-03-02T00:08:59;7.22;;;5.63;;
50092;SDS011;35974;47.752;10.290;2024-03-02T00:11:34;8.98;;;6.00;;
50092;SDS011;35974;47.752;10.290;2024-03-02T00:14:02;8.93;;;6.18;;
50092;SDS011;35974;47.752;10.290;2024-03-02T00:16:30;8.77;;;6.28;;
50092;SDS011;35974;47.752;10.290;2024-03-02T00:19:00;9.60;;;6.07;;
50092;SDS011;35974;47.752;10.290;2024-03-02T00:21:29;10.88;;;7.05;;
50092;SDS011;35974;47.752;10.290;2024-03-02T00:23:56;11.65;;;7.18;;
50092;SDS011;35974;47.752;10.290;2024-03-02T00:26:23;14.68;;;8.20;;
50092;SDS011;35974;47.752;10.290;2024-03-02T00:28:49;14.82;;;7.97;;
50092;SDS011;35974;47.752;10.290;2024-03-02T00:31:20;15.60;;;8.95;;
50092;SDS011;35974;47.752;10.290;2024-03-02T00:33:47;16.30;;;9.20;;
50092;SDS011;35974;47.752;10.290;2024-03-02T00:36:15;16.50;;;8.70;;
50092;SDS011;35974;47.752;10.290;2024-03-02T00:38:46;19.92;;;10.00;;
50092;SDS011;35974;47.752;10.290;2024-03-02T00:41:16;18.48;;;10.68;;
50092;SDS011;35974;47.752;10.290;2024-03-02T00:44:01;22.08;;;12.50;;
50092;SDS011;35974;47.752;10.290;2024-03-02T00:46:37;20.33;;;11.00;;
50092;SDS011;35974;47.752;10.290;2024-03-02T00:51:37;18.65;;;11.32;;
50092;SDS011;35974;47.752;10.290;2024-03-02T00:54:05;17.60;;;11.25;;
50092;SDS011;35974;47.752;10.290;2024-03-02T00:56:35;19.92;;;11.43;;
50092;SDS011;35974;47.752;10.290;2024-03-02T00:59:02;19.27;;;11.48;;
50092;SDS011;35974;47.752;10.290;2024-03-02T01:01:37;18.20;;;11.38;;
50092;SDS011;35974;47.752;10.290;2024-03-02T01:04:03;18.30;;;11.82;;
50092;SDS011;35974;47.752;10.290;2024-03-02T01:06:31;20.80;;;12.10;;
50092;SDS011;35974;47.752;10.290;2024-03-02T01:08:57;24.73;;;13.75;;
50092;SDS011;35974;47.752;10.290;2024-03-02T01:11:24;33.67;;;16.58;;
50092;SDS011;35974;47.752;10.290;2024-03-02T01:13:51;27.13;;;15.13;;
50092;SDS011;35974;47.752;10.290;2024-03-02T01:16:18;24.65;;;13.40;;
50092;SDS011;35974;47.752;10.290;2024-03-02T01:18:45;20.92;;;11.90;;
50092;SDS011;35974;47.752;10.290;2024-03-02T01:21:12;20.60;;;11.07;;
50092;SDS011;35974;47.752;10.290;2024-03-02T01:23:39;16.08;;;10.48;;
50092;SDS011;35974;47.752;10.290;2024-03-02T01:26:05;16.20;;;10.15;;
50092;SDS011;35974;47.752;10.290;2024-03-02T01:28:33;14.35;;;9.23;;
50092;SDS011;35974;47.752;10.290;2024-03-02T01:31:00;12.90;;;8.45;;
50092;SDS011;35974;47.752;10.290;2024-03-02T01:33:27;14.52;;;9.25;;
50092;SDS011;35974;47.752;10.290;2024-03-02T01:35:54;13.93;;;9.27;;
50092;SDS011;35974;47.752;10.290;2024-03-02T01:38:20;13.75;;;9.20;;
50092;SDS011;35974;47.752;10.290;2024-03-02T01:40:49;14.20;;;9.30;;
50092;SDS011;35974;47.752;10.290;2024-03-02T01:43:15;14.27;;;9.57;;
50092;SDS011;35974;47.752;10.290;2024-03-02T01:45:42;13.45;;;9.05;;
50092;SDS011;35974;47.752;10.290;2024-03-02T01:48:11;13.15;;;8.48;;
50092;SDS011;35974;47.752;10.290;2024-03-02T01:50:37;12.88;;;8.63;;
50092;SDS011;35974;47.752;10.290;2024-03-02T01:53:04;14.85;;;9.20;;
50092;SDS011;35974;47.752;10.290;2024-03-02T01:55:30;12.18;;;8.27;;
50092;SDS011;35974;47.752;10.290;2024-03-02T01:58:05;12.98;;;8.73;;
50092;SDS011;35974;47.752;10.290;2024-03-02T02:00:33;12.20;;;8.43;;
50092;SDS011;35974;47.752;10.290;2024-03-02T02:02:59;13.75;;;9.07;;
50092;SDS011;35974;47.752;10.290;2024-03-02T02:05:26;12.25;;;8.27;;
50092;SDS011;35974;47.752;10.290;2024-03-02T02:07:53;13.18;;;8.57;;
50092;SDS011;35974;47.752;10.290;2024-03-02T02:10:20;13.55;;;8.73;;
50092;SDS011;35974;47.752;10.290;2024-03-02T02:12:47;13.50;;;9.25;;
50092;SDS011;35974;47.752;10.290;2024-03-02T02:15:23;14.10;;;8.60;;
50092;SDS011;35974;47.752;10.290;2024-03-02T02:17:54;12.35;;;8.25;;
50092;SDS011;35974;47.752;10.290;2024-03-02T02:20:22;13.93;;;8.35;;
50092;SDS011;35974;47.752;10.290;2024-03-02T02:22:55;14.35;;;9.45;;
50092;SDS011;35974;47.752;10.290;2024-03-02T02:25:24;14.30;;;9.43;;
50092;SDS011;35974;47.752;10.290;2024-03-02T02:27:51;14.40;;;8.93;;
50092;SDS011;35974;47.752;10.290;2024-03-02T02:30:19;14.13;;;9.75;;
50092;SDS011;35974;47.752;10.290;2024-03-02T02:32:48;14.45;;;9.95;;
50092;SDS011;35974;47.752;10.290;2024-03-02T02:35:15;13.98;;;8.77;;
50092;SDS011;35974;47.752;10.290;2024-03-02T02:37:42;16.52;;;10.23;;
50092;SDS011;35974;47.752;10.290;2024-03-02T02:40:10;17.13;;;11.00;;
50092;SDS011;35974;47.752;10.290;2024-03-02T02:42:39;16.55;;;10.70;;
50092;SDS011;35974;47.752;10.290;2024-03-02T02:45:06;16.10;;;10.48;;
50092;SDS011;35974;47.752;10.290;2024-03-02T02:47:33;14.85;;;10.00;;
50092;SDS011;35974;47.752;10.290;2024-03-02T02:50:06;16.55;;;10.27;;
50092;SDS011;35974;47.752;10.290;2024-03-02T02:52:38;18.27;;;11.10;;
50092;SDS011;35974;47.752;10.290;2024-03-02T02:55:07;18.33;;;10.95;;
50092;SDS011;35974;47.752;10.290;2024-03-02T02:57:36;15.82;;;10.15;;
50092;SDS011;35974;47.752;10.290;2024-03-02T03:00:07;16.48;;;10.80;;
50092;SDS011;35974;47.752;10.290;2024-03-02T03:02:40;14.70;;;10.45;;
50092;SDS011;35974;47.752;10.290;2024-03-02T03:05:12;16.02;;;10.45;;
50092;SDS011;35974;47.752;10.290;2024-03-02T03:07:41;16.92;;;10.95;;
50092;SDS011;35974;47.752;10.290;2024-03-02T03:10:08;14.95;;;10.10;;
50092;SDS011;35974;47.752;10.290;2024-03-02T03:12:35;15.05;;;10.30;;
50092;SDS011;35974;47.752;10.290;2024-03-02T03:15:03;15.25;;;10.50;;
50092;SDS011;35974;47.752;10.290;2024-03-02T03:17:41;15.55;;;9.93;;
50092;SDS011;35974;47.752;10.290;2024-03-02T03:20:07;15.15;;;10.27;;
50092;SDS011;35974;47.752;10.290;2024-03-02T03:22:37;13.02;;;9.32;;
50092;SDS011;35974;47.752;10.290;2024-03-02T03:25:05;14.05;;;9.60;;
50092;SDS011;35974;47.752;10.290;2024-03-02T03:27:33;16.92;;;10.90;;
50092;SDS011;35974;47.752;10.290;2024-03-02T03:30:00;17.52;;;11.30;;
50092;SDS011;35974;47.752;10.290;2024-03-02T03:32:28;15.88;;;10.52;;
50092;SDS011;35974;47.752;10.290;2024-03-02T03:34:55;16.02;;;10.57;;
50092;SDS011;35974;47.752;10.290;2024-03-02T03:37:21;13.90;;;10.05;;
50092;SDS011;35974;47.752;10.290;2024-03-02T03:39:48;14.05;;;10.05;;
50092;SDS011;35974;47.752;10.290;2024-03-02T03:44:44;15.35;;;10.65;;
50092;SDS011;35974;47.752;10.290;2024-03-02T03:47:10;15.93;;;10.50;;
50092;SDS011;35974;47.752;10.290;2024-03-02T03:49:37;14.32;;;10.18;;
50092;SDS011;35974;47.752;10.290;2024-03-02T03:52:16;16.42;;;10.45;;
50092;SDS011;35974;47.752;10.290;2024-03-02T03:54:42;14.98;;;9.77;;
50092;SDS011;35974;47.752;10.290;2024-03-02T03:57:09;13.75;;;9.82;;
50092;SDS011;35974;47.752;10.290;2024-03-02T03:59:36;14.20;;;9.80;;
50092;SDS011;35974;47.752;10.290;2024-03-02T04:04:35;14.63;;;9.82;;
50092;SDS011;35974;47.752;10.290;2024-03-02T04:07:01;16.38;;;11.18;;
50092;SDS011;35974;47.752;10.290;2024-03-02T04:09:30;13.43;;;9.30;;
50092;SDS011;35974;47.752;10.290;2024-03-02T04:11:57;15.30;;;9.65;;
50092;SDS011;35974;47.752;10.290;2024-03-02T04:14:23;15.48;;;9.50;;
50092;SDS011;35974;47.752;10.290;2024-03-02T04:16:50;15.70;;;10.15;;
50092;SDS011;35974;47.752;10.290;2024-03-02T04:19:16;13.82;;;9.48;;
50092;SDS011;35974;47.752;10.290;2024-03-02T04:21:43;15.90;;;10.15;;
50092;SDS011;35974;47.752;10.290;2024-03-02T04:24:09;16.23;;;10.45;;
50092;SDS011;35974;47.752;10.290;2024-03-02T04:26:38;14.68;;;9.38;;
50092;SDS011;35974;47.752;10.290;2024-03-02T04:29:04;13.65;;;9.45;;
50092;SDS011;35974;47.752;10.290;2024-03-02T04:31:31;14.10;;;9.35;;
50092;SDS011;35974;47.752;10.290;2024-03-02T04:33:58;15.65;;;9.68;;
50092;SDS011;35974;47.752;10.290;2024-03-02T04:36:33;13.57;;;9.48;;
50092;SDS011;35974;47.752;10.290;2024-03-02T04:39:00;14.05;;;9.63;;
50092;SDS011;35974;47.752;10.290;2024-03-02T04:41:26;15.25;;;9.98;;
50092;SDS011;35974;47.752;10.290;2024-03-02T04:43:54;15.48;;;9.80;;
50092;SDS011;35974;47.752;10.290;2024-03-02T04:46:20;15.15;;;10.70;;
50092;SDS011;35974;47.752;10.290;2024-03-02T04:48:47;15.23;;;9.70;;
50092;SDS011;35974;47.752;10.290;2024-03-02T04:51:14;14.88;;;9.70;;
50092;SDS011;35974;47.752;10.290;2024-03-02T04:53:41;15.18;;;10.27;;
50092;SDS011;35974;47.752;10.290;2024-03-02T04:56:08;14.30;;;9.52;;
50092;SDS011;35974;47.752;10.290;2024-03-02T04:58:53;14.20;;;9.18;;
50092;SDS011;35974;47.752;10.290;2024-03-02T05:01:20;12.27;;;8.43;;
50092;SDS011;35974;47.752;10.290;2024-03-02T05:03:46;14.43;;;9.07;;
50092;SDS011;35974;47.752;10.290;2024-03-02T05:06:13;16.23;;;10.13;;
50092;SDS011;35974;47.752;10.290;2024-03-02T05:08:39;15.90;;;10.73;;
50092;SDS011;35974;47.752;10.290;2024-03-02T05:11:06;13.85;;;9.55;;
50092;SDS011;35974;47.752;10.290;2024-03-02T05:13:51;12.65;;;8.95;;
50092;SDS011;35974;47.752;10.290;2024-03-02T05:16:18;13.07;;;8.68;;
50092;SDS011;35974;47.752;10.290;2024-03-02T05:18:48;12.23;;;8.48;;
50092;SDS011;35974;47.752;10.290;2024-03-02T05:21:16;12.38;;;8.77;;
50092;SDS011;35974;47.752;10.290;2024-03-02T05:23:42;13.35;;;8.98;;
50092;SDS011;35974;47.752;10.290;2024-03-02T05:26:09;12.98;;;8.35;;
50092;SDS011;35974;47.752;10.290;2024-03-02T05:28:39;12.13;;;8.05;;
50092;SDS011;35974;47.752;10.290;2024-03-02T05:31:05;13.52;;;8.48;;
50092;SDS011;35974;47.752;10.290;2024-03-02T05:33:33;12.02;;;8.23;;
50092;SDS011;35974;47.752;10.290;2024-03-02T05:36:02;13.23;;;8.45;;
50092;SDS011;35974;47.752;10.290;2024-03-02T05:38:29;14.05;;;8.82;;
50092;SDS011;35974;47.752;10.290;2024-03-02T05:40:56;12.85;;;8.43;;
50092;SDS011;35974;47.752;10.290;2024-03-02T05:43:22;11.75;;;7.93;;
50092;SDS011;35974;47.752;10.290;2024-03-02T05:45:48;10.15;;;7.10;;
50092;SDS011;35974;47.752;10.290;2024-03-02T05:48:15;11.80;;;7.78;;
50092;SDS011;35974;47.752;10.290;2024-03-02T05:50:42;10.23;;;7.30;;
50092;SDS011;35974;47.752;10.290;2024-03-02T05:53:08;11.52;;;7.90;;
50092;SDS011;35974;47.752;10.290;2024-03-02T05:55:35;9.70;;;6.65;;
50092;SDS011;35974;47.752;10.290;2024-03-02T05:58:01;10.23;;;6.97;;
50092;SDS011;35974;47.752;10.290;2024-03-02T06:00:46;12.30;;;7.88;;
50092;SDS011;35974;47.752;10.290;2024-03-02T06:03:14;10.35;;;6.68;;
50092;SDS011;35974;47.752;10.290;2024-03-02T06:05:40;11.07;;;6.82;;
50092;SDS011;35974;47.752;10.290;2024-03-02T06:08:07;9.43;;;7.05;;
50092;SDS011;35974;47.752;10.290;2024-03-02T06:10:33;10.77;;;6.70;;
50092;SDS011;35974;47.752;10.290;2024-03-02T06:13:00;10.38;;;7.28;;
50092;SDS011;35974;47.752;10.290;2024-03-02T06:15:27;10.02;;;6.80;;
50092;SDS011;35974;47.752;10.290;2024-03-02T06:17:53;9.90;;;6.93;;
50092;SDS011;35974;47.752;10.290;2024-03-02T06:20:20;11.52;;;7.53;;
50092;SDS011;35974;47.752;10.290;2024-03-02T06:22:46;11.48;;;7.45;;
50092;SDS011;35974;47.752;10.290;2024-03-02T06:25:13;28.25;;;11.65;;
50092;SDS011;35974;47.752;10.290;2024-03-02T06:27:41;32.30;;;13.68;;
50092;SDS011;35974;47.752;10.290;2024-03-02T06:30:08;24.65;;;11.98;;
50092;SDS011;35974;47.752;10.290;2024-03-02T06:32:35;17.60;;;9.27;;
50092;SDS011;35974;47.752;10.290;2024-03-02T06:35:01;14.88;;;9.02;;
50092;SDS011;35974;47.752;10.290;2024-03-02T06:37:31;15.32;;;8.85;;
50092;SDS011;35974;47.752;10.290;2024-03-02T06:39:58;18.73;;;11.20;;
50092;SDS011;35974;47.752;10.290;2024-03-02T06:42:24;14.95;;;8.80;;
50092;SDS011;35974;47.752;10.290;2024-03-02T06:44:56;11.65;;;7.60;;
50092;SDS011;35974;47.752;10.290;2024-03-02T06:47:22;12.43;;;7.75;;
50092;SDS011;35974;47.752;10.290;2024-03-02T06:49:56;11.13;;;7.25;;
50092;SDS011;35974;47.752;10.290;2024-03-02T06:52:24;11.65;;;7.82;;
50092;SDS011;35974;47.752;10.290;2024-03-02T06:54:52;11.70;;;7.45;;
50092;SDS011;35974;47.752;10.290;2024-03-02T06:57:22;9.43;;;7.20;;
50092;SDS011;35974;47.752;10.290;2024-03-02T06:59:48;11.88;;;7.30;;
50092;SDS011;35974;47.752;10.290;2024-03-02T07:02:17;10.88;;;7.30;;
50092;SDS011;35974;47.752;10.290;2024-03-02T07:04:44;9.68;;;6.95;;
50092;SDS011;35974;47.752;10.290;2024-03-02T07:07:11;10.30;;;7.03;;
50092;SDS011;35974;47.752;10.290;2024-03-02T07:09:38;10.48;;;7.32;;
50092;SDS011;35974;47.752;10.290;2024-03-02T07:12:05;10.52;;;6.97;;
50092;SDS011;35974;47.752;10.290;2024-03-02T07:14:31;12.35;;;7.95;;
50092;SDS011;35974;47.752;10.290;2024-03-02T07:17:16;16.10;;;8.85;;
50092;SDS011;35974;47.752;10.290;2024-03-02T07:19:43;12.48;;;8.30;;
50092;SDS011;35974;47.752;10.290;2024-03-02T07:22:11;10.80;;;7.20;;
50092;SDS011;35974;47.752;10.290;2024-03-02T07:24:41;10.73;;;7.43;;
50092;SDS011;35974;47.752;10.290;2024-03-02T07:27:11;12.98;;;8.70;;
50092;SDS011;35974;47.752;10.290;2024-03-02T07:29:38;10.48;;;7.75;;
50092;SDS011;35974;47.752;10.290;2024-03-02T07:32:06;15.18;;;10.38;;
50092;SDS011;35974;47.752;10.290;2024-03-02T07:34:34;13.63;;;10.00;;
50092;SDS011;35974;47.752;10.290;2024-03-02T07:37:00;15.05;;;11.02;;
50092;SDS011;35974;47.752;10.290;2024-03-02T07:39:27;15.95;;;10.30;;
50092;SDS011;35974;47.752;10.290;2024-03-02T07:41:54;15.85;;;10.60;;
50092;SDS011;35974;47.752;10.290;2024-03-02T07:44:21;13.05;;;8.93;;
50092;SDS011;35974;47.752;10.290;2024-03-02T07:46:49;14.05;;;9.35;;
50092;SDS011;35974;47.752;10.290;2024-03-02T07:49:16;12.77;;;8.80;;
50092;SDS011;35974;47.752;10.290;2024-03-02T07:51:43;11.23;;;7.90;;
50092;SDS011;35974;47.752;10.290;2024-03-02T07:54:10;11.88;;;7.55;;
50092;SDS011;35974;47.752;10.290;2024-03-02T07:56:36;10.45;;;6.93;;
50092;SDS011;35974;47.752;10.290;2024-03-02T07:59:03;9.90;;;6.97;;
50092;SDS011;35974;47.752;10.290;2024-03-02T08:01:31;10.25;;;7.10;;
50092;SDS011;35974;47.752;10.290;2024-03-02T08:03:58;10.05;;;6.88;;
50092;SDS011;35974;47.752;10.290;2024-03-02T08:06:27;9.50;;;6.50;;
50092;SDS011;35974;47.752;10.290;2024-03-02T08:08:54;10.32;;;6.28;;
50092;SDS011;35974;47.752;10.290;2024-03-02T08:11:22;9.23;;;6.45;;
50092;SDS011;35974;47.752;10.290;2024-03-02T08:13:49;11.15;;;6.32;;
50092;SDS011;35974;47.752;10.290;2024-03-02T08:16:16;8.85;;;6.28;;
50092;SDS011;35974;47.752;10.290;2024-03-02T08:18:49;11.38;;;7.15;;
50092;SDS011;35974;47.752;10.290;2024-03-02T08:21:16;8.10;;;5.85;;
50092;SDS011;35974;47.752;10.290;2024-03-02T08:23:43;9.48;;;5.72;;
50092;SDS011;35974;47.752;10.290;2024-03-02T08:26:10;8.65;;;5.88;;
50092;SDS011;35974;47.752;10.290;2024-03-02T08:28:40;7.60;;;4.90;;
50092;SDS011;35974;47.752;10.290;2024-03-02T08:31:06;7.35;;;5.13;;
50092;SDS011;35974;47.752;10.290;2024-03-02T08:33:37;6.75;;;4.95;;
50092;SDS011;35974;47.752;10.290;2024-03-02T08:36:04;6.72;;;4.88;;
50092;SDS011;35974;47.752;10.290;2024-03-02T08:38:31;7.50;;;4.95;;
50092;SDS011;35974;47.752;10.290;2024-03-02T08:40:59;7.53;;;4.80;;
50092;SDS011;35974;47.752;10.290;2024-03-02T08:43:25;9.18;;;5.40;;
50092;SDS011;35974;47.752;10.290;2024-03-02T08:45:53;7.53;;;4.70;;
50092;SDS011;35974;47.752;10.290;2024-03-02T08:48:20;7.22;;;3.95;;
50092;SDS011;35974;47.752;10.290;2024-03-02T08:50:47;5.78;;;3.35;;
50092;SDS011;35974;47.752;10.290;2024-03-02T08:53:14;4.22;;;3.00;;
50092;SDS011;35974;47.752;10.290;2024-03-02T08:55:47;4.05;;;3.00;;
50092;SDS011;35974;47.752;10.290;2024-03-02T08:58:14;4.32;;;1.50;;
50092;SDS011;35974;47.752;10.290;2024-03-02T09:00:40;1.90;;;1.23;;
50092;SDS011;35974;47.752;10.290;2024-03-02T09:03:07;1.13;;;0.93;;
50092;SDS011;35974;47.752;10.290;2024-03-02T09:05:34;1.13;;;0.93;;
50092;SDS011;35974;47.752;10.290;2024-03-02T09:08:00;1.40;;;0.80;;
50092;SDS011;35974;47.752;10.290;2024-03-02T09:10:27;3.10;;;1.00;;
50092;SDS011;35974;47.752;10.290;2024-03-02T09:12:54;2.00;;;0.80;;
50092;SDS011;35974;47.752;10.290;2024-03-02T09:15:20;1.05;;;0.95;;
50092;SDS011;35974;47.752;10.290;2024-03-02T09:17:48;2.22;;;1.00;;
50092;SDS011;35974;47.752;10.290;2024-03-02T09:20:17;1.85;;;1.02;;
50092;SDS011;35974;47.752;10.290;2024-03-02T09:22:43;0.95;;;0.80;;
50092;SDS011;35974;47.752;10.290;2024-03-02T09:25:11;0.88;;;0.50;;
50092;SDS011;35974;47.752;10.290;2024-03-02T09:27:43;2.40;;;0.70;;
50092;SDS011;35974;47.752;10.290;2024-03-02T09:30:12;3.30;;;1.00;;
50092;SDS011;35974;47.752;10.290;2024-03-02T09:32:41;1.75;;;0.90;;
50092;SDS011;35974;47.752;10.290;2024-03-02T09:35:15;1.58;;;0.80;;
50092;SDS011;35974;47.752;10.290;2024-03-02T09:37:56;1.60;;;0.90;;
50092;SDS011;35974;47.752;10.290;2024-03-02T09:40:23;1.33;;;0.90;;
50092;SDS011;35974;47.752;10.290;2024-03-02T09:42:51;1.77;;;0.60;;
50092;SDS011;35974;47.752;10.290;2024-03-02T09:45:23;1.48;;;0.70;;
50092;SDS011;35974;47.752;10.290;2024-03-02T09:47:57;0.68;;;0.50;;
50092;SDS011;35974;47.752;10.290;2024-03-02T09:50:26;1.23;;;0.52;;
50092;SDS011;35974;47.752;10.290;2024-03-02T09:52:53;1.00;;;0.50;;
50092;SDS011;35974;47.752;10.290;2024-03-02T09:55:21;1.85;;;0.45;;
50092;SDS011;35974;47.752;10.290;2024-03-02T09:57:48;3.47;;;0.30;;
50092;SDS011;35974;47.752;10.290;2024-03-02T10:00:18;4.10;;;0.75;;
50092;SDS011;35974;47.752;10.290;2024-03-02T10:02:46;4.65;;;0.77;;
50092;SDS011;35974;47.752;10.290;2024-03-02T10:05:26;3.38;;;0.50;;
50092;SDS011;35974;47.752;10.290;2024-03-02T10:08:02;1.70;;;0.60;;
50092;SDS011;35974;47.752;10.290;2024-03-02T10:10:38;3.58;;;0.70;;
50092;SDS011;35974;47.752;10.290;2024-03-02T10:13:07;1.60;;;1.00;;
50092;SDS011;35974;47.752;10.290;2024-03-02T10:15:35;4.88;;;1.63;;
50092;SDS011;35974;47.752;10.290;2024-03-02T10:18:12;1.92;;;0.98;;
50092;SDS011;35974;47.752;10.290;2024-03-02T10:20:40;1.98;;;1.10;;
50092;SDS011;35974;47.752;10.290;2024-03-02T10:23:15;2.00;;;1.33;;
50092;SDS011;35974;47.752;10.290;2024-03-02T10:25:43;9.27;;;4.40;;
50092;SDS011;35974;47.752;10.290;2024-03-02T10:28:23;2.88;;;1.70;;
50092;SDS011;35974;47.752;10.290;2024-03-02T10:30:50;4.38;;;1.20;;
50092;SDS011;35974;47.752;10.290;2024-03-02T10:33:27;2.72;;;0.70;;
50092;SDS011;35974;47.752;10.290;2024-03-02T10:36:14;3.00;;;0.50;;
50092;SDS011;35974;47.752;10.290;2024-03-02T10:38:41;2.20;;;0.40;;
50092;SDS011;35974;47.752;10.290;2024-03-02T10:41:09;0.80;;;0.38;;
50092;SDS011;35974;47.752;10.290;2024-03-02T10:46:07;8.38;;;0.70;;
50092;SDS011;35974;47.752;10.290;2024-03-02T10:48:37;1.30;;;0.50;;
50092;SDS011;35974;47.752;10.290;2024-03-02T10:51:09;3.58;;;1.15;;
50092;SDS011;35974;47.752;10.290;2024-03-02T10:53:52;0.93;;;0.82;;
50092;SDS011;35974;47.752;10.290;2024-03-02T10:56:24;2.78;;;0.50;;
50092;SDS011;35974;47.752;10.290;2024-03-02T11:04:20;0.50;;;0.40;;
50092;SDS011;35974;47.752;10.290;2024-03-02T11:06:49;0.90;;;0.40;;
50092;SDS011;35974;47.752;10.290;2024-03-02T11:09:22;0.93;;;0.50;;
50092;SDS011;35974;47.752;10.290;2024-03-02T11:14:26;0.75;;;0.45;;
50092;SDS011;35974;47.752;10.290;2024-03-02T11:16:52;2.00;;;0.60;;
50092;SDS011;35974;47.752;10.290;2024-03-02T11:19:20;0.50;;;0.30;;
50092;SDS011;35974;47.752;10.290;2024-03-02T11:21:47;0.45;;;0.35;;
50092;SDS011;35974;47.752;10.290;2024-03-02T11:26:47;0.77;;;0.38;;
50092;SDS011;35974;47.752;10.290;2024-03-02T11:32:03;0.60;;;0.30;;
50092;SDS011;35974;47.752;10.290;2024-03-02T11:34:34;0.50;;;0.30;;
50092;SDS011;35974;47.752;10.290;2024-03-02T11:37:01;0.47;;;0.20;;
50092;SDS011;35974;47.752;10.290;2024-03-02T11:39:29;0.40;;;0.28;;
50092;SDS011;35974;47.752;10.290;2024-03-02T11:41:56;1.38;;;0.30;;
50092;SDS011;35974;47.752;10.290;2024-03-02T11:44:25;0.90;;;0.52;;
50092;SDS011;35974;47.752;10.290;2024-03-02T11:46:59;0.73;;;0.22;;
50092;SDS011;35974;47.752;10.290;2024-03-02T11:49:36;1.80;;;0.30;;
50092;SDS011;35974;47.752;10.290;2024-03-02T11:52:05;0.32;;;0.30;;
50092;SDS011;35974;47.752;10.290;2024-03-02T11:54:36;0.98;;;0.52;;
50092;SDS011;35974;47.752;10.290;2024-03-02T11:57:07;1.45;;;0.20;;
50092;SDS011;35974;47.752;10.290;2024-03-02T11:59:34;0.77;;;0.25;;
50092;SDS011;35974;47.752;10.290;2024-03-02T12:02:01;0.95;;;0.50;;
50092;SDS011;35974;47.752;10.290;2024-03-02T12:04:29;4.47;;;0.57;;
50092;SDS011;35974;47.752;10.290;2024-03-02T12:06:58;1.65;;;0.47;;
50092;SDS011;35974;47.752;10.290;2024-03-02T12:09:29;2.90;;;0.80;;
50092;SDS011;35974;47.752;10.290;2024-03-02T12:12:06;2.50;;;0.93;;
50092;SDS011;35974;47.752;10.290;2024-03-02T12:14:37;1.88;;;0.90;;
50092;SDS011;35974;47.752;10.290;2024-03-02T12:17:04;1.95;;;0.90;;
50092;SDS011;35974;47.752;10.290;2024-03-02T12:19:32;3.42;;;1.08;;
50092;SDS011;35974;47.752;10.290;2024-03-02T12:22:00;1.23;;;0.88;;
50092;SDS011;35974;47.752;10.290;2024-03-02T12:24:28;2.10;;;0.80;;
50092;SDS011;35974;47.752;10.290;2024-03-02T12:26:57;1.85;;;0.90;;
50092;SDS011;35974;47.752;10.290;2024-03-02T12:29:26;0.80;;;0.55;;
50092;SDS011;35974;47.752;10.290;2024-03-02T12:31:53;1.58;;;0.52;;
50092;SDS011;35974;47.752;10.290;2024-03-02T12:34:20;1.10;;;0.40;;
50092;SDS011;35974;47.752;10.290;2024-03-02T12:36:48;1.15;;;0.70;;
50092;SDS011;35974;47.752;10.290;2024-03-02T12:39:19;1.23;;;0.32;;
50092;SDS011;35974;47.752;10.290;2024-03-02T12:41:46;0.73;;;0.50;;
50092;SDS011;35974;47.752;10.290;2024-03-02T12:44:13;1.92;;;0.65;;
50092;SDS011;35974;47.752;10.290;2024-03-02T12:46:40;2.15;;;0.65;;
50092;SDS011;35974;47.752;10.290;2024-03-02T12:49:10;0.85;;;0.50;;
50092;SDS011;35974;47.752;10.290;2024-03-02T12:51:45;3.28;;;1.35;;
50092;SDS011;35974;47.752;10.290;2024-03-02T12:54:18;2.70;;;1.40;;
50092;SDS011;35974;47.752;10.290;2024-03-02T12:56:44;2.13;;;1.23;;
50092;SDS011;35974;47.752;10.290;2024-03-02T12:59:19;3.08;;;1.30;;
50092;SDS011;35974;47.752;10.290;2024-03-02T13:01:58;4.28;;;1.55;;
50092;SDS011;35974;47.752;10.290;2024-03-02T13:04:33;2.75;;;1.60;;
50092;SDS011;35974;47.752;10.290;2024-03-02T13:07:00;2.17;;;1.25;;
50092;SDS011;35974;47.752;10.290;2024-03-02T13:09:34;1.70;;;1.30;;
50092;SDS011;35974;47.752;10.290;2024-03-02T13:12:01;3.08;;;1.60;;
50092;SDS011;35974;47.752;10.290;2024-03-02T13:14:33;3.08;;;1.50;;
50092;SDS011;35974;47.752;10.290;2024-03-02T13:17:03;4.63;;;1.23;;
50092;SDS011;35974;47.752;10.290;2024-03-02T13:19:34;1.52;;;0.80;;
50092;SDS011;35974;47.752;10.290;2024-03-02T13:22:06;1.20;;;0.80;;
50092;SDS011;35974;47.752;10.290;2024-03-02T13:24:36;1.90;;;0.80;;
50092;SDS011;35974;47.752;10.290;2024-03-02T13:27:02;1.30;;;0.80;;
50092;SDS011;35974;47.752;10.290;2024-03-02T13:29:31;0.90;;;0.60;;
50092;SDS011;35974;47.752;10.290;2024-03-02T13:31:58;2.33;;;0.80;;
50092;SDS011;35974;47.752;10.290;2024-03-02T13:34:33;1.38;;;0.80;;
50092;SDS011;35974;47.752;10.290;2024-03-02T13:37:07;2.55;;;0.80;;
50092;SDS011;35974;47.752;10.290;2024-03-02T13:39:34;4.00;;;1.45;;
50092;SDS011;35974;47.752;10.290;2024-03-02T13:42:09;2.22;;;1.25;;
50092;SDS011;35974;47.752;10.290;2024-03-02T13:44:41;1.60;;;0.80;;
50092;SDS011;35974;47.752;10.290;2024-03-02T13:47:11;3.10;;;1.17;;
50092;SDS011;35974;47.752;10.290;2024-03-02T13:49:43;3.28;;;1.02;;
50092;SDS011;35974;47.752;10.290;2024-03-02T13:52:12;2.67;;;1.30;;
50092;SDS011;35974;47.752;10.290;2024-03-02T13:54:47;2.47;;;1.35;;
50092;SDS011;35974;47.752;10.290;2024-03-02T13:57:31;4.65;;;1.67;;
50092;SDS011;35974;47.752;10.290;2024-03-02T14:00:00;2.40;;;1.40;;
50092;SDS011;35974;47.752;10.290;2024-03-02T14:02:39;13.77;;;2.83;;
50092;SDS011;35974;47.752;10.290;2024-03-02T14:05:06;5.25;;;2.50;;
50092;SDS011;35974;47.752;10.290;2024-03-02T14:07:39;4.43;;;2.40;;
50092;SDS011;35974;47.752;10.290;2024-03-02T14:10:15;3.35;;;1.95;;
50092;SDS011;35974;47.752;10.290;2024-03-02T14:12:42;5.07;;;2.33;;
50092;SDS011;35974;47.752;10.290;2024-03-02T14:15:09;3.17;;;2.20;;
50092;SDS011;35974;47.752;10.290;2024-03-02T14:17:36;3.80;;;2.50;;
50092;SDS011;35974;47.752;10.290;2024-03-02T14:20:05;4.53;;;2.35;;
50092;SDS011;35974;47.752;10.290;2024-03-02T14:22:35;7.15;;;3.38;;
50092;SDS011;35974;47.752;10.290;2024-03-02T14:25:05;3.90;;;2.40;;
50092;SDS011;35974;47.752;10.290;2024-03-02T14:27:34;4.55;;;2.08;;
50092;SDS011;35974;47.752;10.290;2024-03-02T14:32:58;4.20;;;2.25;;
50092;SDS011;35974;47.752;10.290;2024-03-02T14:35:36;3.33;;;1.80;;
50092;SDS011;35974;47.752;10.290;2024-03-02T14:38:05;3.40;;;2.00;;
50092;SDS011;35974;47.752;10.290;2024-03-02T14:40:38;3.10;;;1.50;;
50092;SDS011;35974;47.752;10.290;2024-03-02T14:43:05;1.42;;;1.20;;
50092;SDS011;35974;47.752;10.290;2024-03-02T14:45:39;3.28;;;1.70;;
50092;SDS011;35974;47.752;10.290;2024-03-02T14:48:06;2.88;;;1.50;;
50092;SDS011;35974;47.752;10.290;2024-03-02T14:50:39;2.63;;;1.52;;
50092;SDS011;35974;47.752;10.290;2024-03-02T14:53:07;3.72;;;1.58;;
50092;SDS011;35974;47.752;10.290;2024-03-02T14:55:37;2.65;;;1.20;;
50092;SDS011;35974;47.752;10.290;2024-03-02T14:58:05;2.05;;;1.40;;
50092;SDS011;35974;47.752;10.290;2024-03-02T15:00:32;2.90;;;1.58;;
50092;SDS011;35974;47.752;10.290;2024-03-02T15:02:59;4.05;;;1.88;;